createdAt,value
2018-09-27T00:02:24.032Z,1.00
2018-09-27T00:04:53.095Z,1.00
2018-09-27T00:07:22.224Z,1.00
2018-09-27T00:09:51.238Z,1.00
2018-09-27T00:12:20.289Z,1.00
2018-09-27T00:14:49.034Z,1.00
2018-09-27T00:17:18.088Z,1.00
2018-09-27T00:19:47.130Z,1.00
2018-09-27T00:22:16.235Z,1.00
2018-09-27T00:24:44.595Z,1.00
2018-09-27T00:27:13.539Z,1.00
2018-09-27T00:29:42.601Z,1.00
2018-09-27T00:32:11.661Z,1.00
2018-09-27T00:34:40.346Z,1.00
2018-09-27T00:37:09.067Z,1.00
2018-09-27T00:39:37.532Z,1.00
2018-09-27T00:42:05.925Z,1.00
2018-09-27T00:44:34.650Z,1.00
2018-09-27T00:47:03.379Z,1.00
2018-09-27T00:49:33.215Z,1.00
2018-09-27T00:52:02.304Z,1.00
2018-09-27T00:54:31.099Z,1.00
2018-09-27T00:57:00.165Z,1.00
2018-09-27T00:59:28.910Z,1.00
2018-09-27T01:01:57.704Z,1.00
2018-09-27T01:04:26.492Z,1.00
2018-09-27T01:06:55.259Z,1.00
2018-09-27T01:09:23.708Z,1.00
2018-09-27T01:11:53.196Z,1.00
2018-09-27T01:14:21.923Z,1.00
2018-09-27T01:16:50.712Z,1.00
2018-09-27T01:19:18.876Z,1.00
2018-09-27T01:21:47.353Z,1.00
2018-09-27T01:24:15.834Z,1.00
2018-09-27T01:26:44.651Z,1.00
2018-09-27T01:29:13.741Z,1.00
2018-09-27T01:31:42.224Z,1.00
2018-09-27T01:34:11.013Z,1.00
2018-09-27T01:36:39.662Z,1.00
2018-09-27T01:39:08.475Z,1.00
2018-09-27T01:41:37.183Z,1.00
2018-09-27T01:44:06.049Z,1.00
2018-09-27T01:46:34.845Z,1.00
2018-09-27T01:49:03.597Z,1.00
2018-09-27T01:51:32.658Z,1.00
2018-09-27T01:54:01.632Z,1.00
2018-09-27T01:56:30.776Z,1.00
2018-09-27T01:58:59.833Z,1.00
2018-09-27T02:01:28.754Z,1.00
2018-09-27T02:04:00.993Z,1.00
2018-09-27T02:06:30.129Z,1.00
2018-09-27T02:08:59.240Z,1.00
2018-09-27T02:11:28.380Z,1.00
2018-09-27T02:13:57.107Z,1.00
2018-09-27T02:16:26.255Z,1.00
2018-09-27T02:18:55.098Z,1.00
2018-09-27T02:21:23.569Z,1.00
2018-09-27T02:23:52.618Z,1.00
2018-09-27T02:26:21.388Z,1.00
2018-09-27T02:28:50.442Z,1.00
2018-09-27T02:31:19.774Z,1.00
2018-09-27T02:33:48.631Z,1.00
2018-09-27T02:36:18.465Z,1.00
2018-09-27T02:38:47.756Z,1.00
2018-09-27T02:41:16.469Z,1.00
2018-09-27T02:43:45.558Z,1.00
2018-09-27T02:46:14.023Z,1.00
2018-09-27T02:48:43.135Z,1.00
2018-09-27T02:51:11.552Z,1.00
2018-09-27T02:53:40.252Z,1.00
2018-09-27T02:56:09.200Z,1.00
2018-09-27T02:58:37.950Z,1.00
2018-09-27T03:01:06.352Z,1.00
2018-09-27T03:03:35.422Z,1.00
2018-09-27T03:06:04.001Z,1.00
2018-09-27T03:08:32.770Z,1.00
2018-09-27T03:11:01.833Z,1.00
2018-09-27T03:13:30.910Z,1.00
2018-09-27T03:15:59.059Z,1.00
2018-09-27T03:18:27.822Z,1.00
2018-09-27T03:20:56.944Z,1.00
2018-09-27T03:23:26.393Z,1.00
2018-09-27T03:25:55.645Z,1.00
2018-09-27T03:28:25.137Z,1.00
2018-09-27T03:30:54.078Z,32.30
2018-09-27T03:33:23.317Z,41.90
2018-09-27T03:35:51.998Z,44.80
2018-09-27T03:38:20.844Z,46.30
2018-09-27T03:40:49.615Z,55.30
2018-09-27T03:43:18.627Z,73.10
2018-09-27T03:45:47.334Z,97.10
2018-09-27T03:48:15.989Z,99.90
2018-09-27T03:50:44.773Z,99.90
2018-09-27T03:53:13.528Z,99.90
2018-09-27T03:55:42.612Z,99.90
2018-09-27T03:58:12.331Z,99.90
2018-09-27T04:00:40.749Z,91.50
2018-09-27T04:03:09.883Z,99.90
2018-09-27T04:05:39.142Z,99.90
2018-09-27T04:08:08.423Z,99.90
2018-09-27T04:10:37.513Z,99.90
2018-09-27T04:13:05.908Z,99.90
2018-09-27T04:15:34.700Z,99.90
2018-09-27T04:18:03.472Z,99.90
2018-09-27T04:20:37.008Z,99.90
2018-09-27T04:23:05.481Z,99.90
2018-09-27T04:25:34.292Z,99.90
2018-09-27T04:28:03.026Z,99.90
2018-09-27T04:30:31.394Z,99.90
2018-09-27T04:32:59.536Z,99.90
2018-09-27T04:35:28.713Z,99.90
2018-09-27T04:37:57.503Z,99.90
2018-09-27T04:40:26.378Z,99.90
2018-09-27T04:42:55.370Z,99.90
2018-09-27T04:45:24.097Z,99.90
2018-09-27T04:47:52.919Z,99.90
2018-09-27T04:50:21.689Z,99.90
2018-09-27T04:52:50.465Z,99.90
2018-09-27T04:55:19.264Z,99.90
2018-09-27T04:57:47.706Z,99.90
2018-09-27T05:00:16.184Z,1.00
2018-09-27T05:02:45.288Z,1.00
2018-09-27T05:05:14.233Z,1.00
2018-09-27T05:07:43.184Z,1.00
2018-09-27T05:10:12.382Z,13.00
2018-09-27T05:12:41.504Z,1.00
2018-09-27T05:15:10.575Z,1.00
2018-09-27T05:17:39.679Z,1.00
2018-09-27T05:20:08.087Z,1.00
2018-09-27T05:22:37.054Z,1.00
2018-09-27T05:25:05.804Z,1.00
2018-09-27T05:27:34.743Z,1.00
2018-09-27T05:30:03.346Z,1.00
2018-09-27T05:32:32.251Z,1.00
2018-09-27T05:35:01.023Z,1.00
2018-09-27T05:37:29.474Z,1.00
2018-09-27T05:39:58.283Z,1.00
2018-09-27T05:42:27.327Z,1.00
2018-09-27T05:44:56.105Z,1.00
2018-09-27T05:47:25.038Z,1.00
2018-09-27T05:49:53.686Z,1.00
2018-09-27T05:52:22.662Z,1.00
2018-09-27T05:54:51.789Z,1.00
2018-09-27T05:57:20.590Z,1.00
2018-09-27T05:59:48.851Z,1.00
2018-09-27T06:02:17.000Z,1.00
2018-09-27T06:04:45.973Z,1.00
2018-09-27T06:07:14.426Z,1.00
2018-09-27T06:09:42.977Z,1.00
2018-09-27T06:12:11.569Z,1.00
2018-09-27T06:14:40.353Z,1.00
2018-09-27T06:17:09.143Z,1.00
2018-09-27T06:19:37.977Z,1.00
2018-09-27T06:22:06.483Z,1.00
2018-09-27T06:24:35.446Z,1.00
2018-09-27T06:27:04.000Z,1.00
2018-09-27T06:29:32.781Z,1.00
2018-09-27T06:32:01.527Z,1.00
2018-09-27T06:34:30.375Z,99.90
2018-09-27T06:36:59.362Z,99.90
2018-09-27T06:39:28.236Z,99.90
2018-09-27T06:41:56.741Z,99.90
2018-09-27T06:44:24.866Z,99.90
2018-09-27T06:46:53.555Z,99.90
2018-09-27T06:49:22.446Z,99.90
2018-09-27T06:51:51.044Z,99.90
2018-09-27T06:54:19.198Z,99.90
2018-09-27T06:56:48.733Z,99.90
2018-09-27T06:59:17.204Z,99.90
2018-09-27T07:01:45.935Z,99.90
2018-09-27T07:04:14.726Z,99.90
2018-09-27T07:06:43.147Z,99.90
2018-09-27T07:09:13.083Z,99.90
2018-09-27T07:11:41.972Z,99.90
2018-09-27T07:14:11.344Z,99.90
2018-09-27T07:16:40.226Z,99.90
2018-09-27T07:19:09.688Z,99.90
2018-09-27T07:21:38.958Z,99.90
2018-09-27T07:24:07.251Z,99.90
2018-09-27T07:26:35.751Z,99.90
2018-09-27T07:29:04.715Z,99.90
2018-09-27T07:31:33.839Z,99.90
2018-09-27T07:34:02.675Z,99.90
2018-09-27T07:36:30.907Z,99.90
2018-09-27T07:38:59.798Z,99.90
2018-09-27T07:41:28.633Z,99.90
2018-09-27T07:43:57.425Z,99.90
2018-09-27T07:46:26.246Z,99.90
2018-09-27T07:48:54.682Z,99.90
2018-09-27T07:51:23.462Z,99.90
2018-09-27T07:53:51.969Z,99.90
2018-09-27T07:56:20.821Z,99.90
2018-09-27T07:58:49.623Z,99.90
2018-09-27T08:01:18.461Z,99.90
2018-09-27T08:03:47.320Z,99.90
2018-09-27T08:06:16.136Z,99.90
2018-09-27T08:08:44.777Z,99.90
2018-09-27T08:11:13.812Z,96.50
2018-09-27T08:13:43.402Z,74.00
2018-09-27T08:16:12.189Z,1.50
2018-09-27T08:18:41.102Z,1.00
2018-09-27T08:21:10.002Z,1.00
2018-09-27T08:23:38.944Z,1.00
2018-09-27T08:26:07.798Z,1.00
2018-09-27T08:28:36.633Z,1.00
2018-09-27T08:31:04.755Z,1.00
2018-09-27T08:33:33.070Z,1.00
2018-09-27T08:36:01.900Z,1.00
2018-09-27T08:38:30.711Z,1.00
2018-09-27T08:40:59.581Z,1.00
2018-09-27T08:43:28.336Z,1.00
2018-09-27T08:45:57.111Z,1.00
2018-09-27T08:48:26.041Z,1.00
2018-09-27T08:50:54.804Z,1.00
2018-09-27T08:53:23.605Z,1.00
2018-09-27T08:55:52.294Z,1.00
2018-09-27T08:58:21.196Z,1.00
2018-09-27T09:00:50.072Z,1.00
2018-09-27T09:03:18.641Z,1.00
2018-09-27T09:05:47.233Z,1.00
2018-09-27T09:08:16.226Z,1.00
2018-09-27T09:10:44.994Z,1.00
2018-09-27T09:13:13.429Z,1.00
2018-09-27T09:15:42.219Z,1.00
2018-09-27T09:18:10.826Z,1.00
2018-09-27T09:20:39.840Z,1.00
2018-09-27T09:23:08.302Z,1.00
2018-09-27T09:25:37.170Z,1.00
2018-09-27T09:28:05.682Z,1.00
2018-09-27T09:30:34.441Z,1.00
2018-09-27T09:33:03.316Z,1.00
2018-09-27T09:35:32.183Z,1.00
2018-09-27T09:38:01.179Z,1.00
2018-09-27T09:40:29.884Z,1.00
2018-09-27T09:42:59.236Z,1.00
2018-09-27T09:45:28.020Z,1.00
2018-09-27T09:47:56.854Z,1.00
2018-09-27T09:50:25.280Z,1.00
2018-09-27T09:52:54.017Z,1.00
2018-09-27T09:55:22.794Z,1.00
2018-09-27T09:57:51.243Z,1.00
2018-09-27T10:00:20.117Z,1.00
2018-09-27T10:02:48.689Z,1.00
2018-09-27T10:05:17.165Z,1.00
2018-09-27T10:07:45.741Z,1.00
2018-09-27T10:10:13.858Z,1.00
2018-09-27T10:12:42.339Z,1.00
2018-09-27T10:15:11.121Z,1.00
2018-09-27T10:17:39.997Z,1.00
2018-09-27T10:20:08.454Z,1.00
2018-09-27T10:22:37.232Z,1.00
2018-09-27T10:25:05.375Z,1.00
2018-09-27T10:27:40.529Z,1.00
2018-09-27T10:30:09.020Z,1.00
2018-09-27T10:32:37.775Z,1.00
2018-09-27T10:35:06.250Z,1.00
2018-09-27T10:37:35.112Z,1.00
2018-09-27T10:40:03.552Z,1.00
2018-09-27T10:42:32.386Z,1.00
2018-09-27T10:45:01.237Z,1.00
2018-09-27T10:47:29.856Z,1.00
2018-09-27T10:49:58.604Z,1.00
2018-09-27T10:52:27.373Z,1.00
2018-09-27T10:54:56.249Z,1.00
2018-09-27T10:57:25.269Z,1.00
2018-09-27T10:59:53.745Z,1.00
2018-09-27T11:02:22.903Z,1.00
2018-09-27T11:04:51.337Z,1.00
2018-09-27T11:07:20.850Z,1.00
2018-09-27T11:09:49.295Z,1.00
2018-09-27T11:12:18.127Z,1.00
2018-09-27T11:14:46.895Z,1.00
2018-09-27T11:17:15.313Z,1.00
2018-09-27T11:19:43.804Z,1.00
2018-09-27T11:22:12.609Z,1.00
2018-09-27T11:24:41.753Z,1.00
2018-09-27T11:27:10.491Z,1.00
2018-09-27T11:29:44.706Z,1.00
2018-09-27T11:32:19.007Z,1.00
2018-09-27T11:34:47.806Z,1.00
2018-09-27T11:37:16.235Z,1.00
2018-09-27T11:39:45.086Z,1.00
2018-09-27T11:42:13.947Z,1.00
2018-09-27T11:44:42.864Z,1.00
2018-09-27T11:47:11.643Z,1.00
2018-09-27T11:49:40.544Z,1.00
2018-09-27T11:52:09.322Z,1.00
2018-09-27T11:54:38.203Z,1.00
2018-09-27T11:57:08.394Z,1.00
2018-09-27T11:59:37.212Z,1.00
2018-09-27T12:02:05.880Z,1.00
2018-09-27T12:04:34.647Z,1.00
2018-09-27T12:07:03.426Z,1.00
2018-09-27T12:09:32.450Z,1.00
2018-09-27T12:12:01.583Z,1.00
2018-09-27T12:14:30.453Z,1.00
2018-09-27T12:16:59.048Z,1.00
2018-09-27T12:19:27.858Z,1.00
2018-09-27T12:21:56.453Z,1.00
2018-09-27T12:24:25.914Z,1.00
2018-09-27T12:26:54.717Z,1.00
2018-09-27T12:29:23.515Z,1.00
2018-09-27T12:31:52.029Z,1.00
2018-09-27T12:34:20.807Z,1.00
2018-09-27T12:36:49.599Z,1.00
2018-09-27T12:39:18.401Z,1.00
2018-09-27T12:41:47.252Z,1.00
2018-09-27T12:44:16.133Z,1.00
2018-09-27T12:46:44.648Z,1.00
2018-09-27T12:49:13.249Z,1.00
2018-09-27T12:51:41.752Z,1.00
2018-09-27T12:54:10.724Z,1.00
2018-09-27T12:56:38.843Z,1.00
2018-09-27T12:59:07.565Z,1.00
2018-09-27T13:01:36.434Z,1.00
2018-09-27T13:04:05.503Z,1.00
2018-09-27T13:06:34.243Z,1.00
2018-09-27T13:09:03.359Z,1.00
2018-09-27T13:11:31.528Z,1.00
2018-09-27T13:14:00.402Z,1.00
2018-09-27T13:16:28.919Z,1.00
2018-09-27T13:18:58.059Z,1.00
2018-09-27T13:21:25.937Z,1.00
2018-09-27T13:23:54.521Z,1.00
2018-09-27T13:26:23.417Z,1.00
2018-09-27T13:28:52.152Z,1.00
2018-09-27T13:31:21.118Z,1.00
2018-09-27T13:33:50.378Z,1.00
2018-09-27T13:36:19.078Z,1.00
2018-09-27T13:38:47.960Z,1.00
2018-09-27T13:41:16.953Z,1.00
2018-09-27T13:43:45.820Z,1.00
2018-09-27T13:46:14.834Z,1.00
2018-09-27T13:48:43.480Z,1.00
2018-09-27T13:51:12.016Z,1.00
2018-09-27T13:53:40.499Z,1.00
2018-09-27T13:56:09.047Z,1.00
2018-09-27T13:58:37.533Z,1.00
2018-09-27T14:01:05.721Z,1.00
2018-09-27T14:03:34.303Z,1.00
2018-09-27T14:06:03.056Z,1.00
2018-09-27T14:08:31.832Z,1.00
2018-09-27T14:11:00.639Z,1.00
2018-09-27T14:13:29.021Z,1.00
2018-09-27T14:15:57.781Z,1.00
2018-09-27T14:18:25.887Z,1.00
2018-09-27T14:20:54.370Z,1.00
2018-09-27T14:23:22.808Z,1.00
2018-09-27T14:25:51.346Z,1.00
2018-09-27T14:28:20.274Z,1.00
2018-09-27T14:30:49.116Z,1.00
2018-09-27T14:33:18.016Z,1.00
2018-09-27T14:35:46.893Z,1.00
2018-09-27T14:38:15.486Z,1.00
2018-09-27T14:40:43.986Z,1.00
2018-09-27T14:43:12.775Z,1.00
2018-09-27T14:45:41.486Z,1.00
2018-09-27T14:48:10.278Z,1.00
2018-09-27T14:50:39.018Z,1.00
2018-09-27T14:53:07.779Z,1.00
2018-09-27T14:55:36.527Z,1.00
2018-09-27T14:58:04.625Z,1.00
2018-09-27T15:00:33.409Z,1.00
2018-09-27T15:03:02.634Z,1.00
2018-09-27T15:05:31.089Z,1.00
2018-09-27T15:07:59.889Z,1.00
2018-09-27T15:10:28.509Z,1.00
2018-09-27T15:12:57.368Z,1.00
2018-09-27T15:15:26.155Z,1.00
2018-09-27T15:17:55.031Z,1.00
2018-09-27T15:20:24.082Z,1.00
2018-09-27T15:22:52.320Z,1.00
2018-09-27T15:25:21.103Z,1.00
2018-09-27T15:27:50.197Z,1.00
2018-09-27T15:30:18.633Z,1.00
2018-09-27T15:32:47.496Z,1.00
2018-09-27T15:35:15.969Z,1.00
2018-09-27T15:37:44.787Z,1.00
2018-09-27T15:40:13.256Z,1.00
2018-09-27T15:42:41.699Z,1.00
2018-09-27T15:45:10.358Z,1.00
2018-09-27T15:47:38.852Z,1.00
2018-09-27T15:50:06.958Z,1.00
2018-09-27T15:52:35.383Z,1.00
2018-09-27T15:55:03.492Z,1.00
2018-09-27T15:57:32.313Z,1.00
2018-09-27T16:00:01.107Z,1.00
2018-09-27T16:02:29.842Z,1.00
2018-09-27T16:04:58.017Z,1.00
2018-09-27T16:07:26.599Z,1.00
2018-09-27T16:09:55.027Z,1.00
2018-09-27T16:12:23.440Z,1.00
2018-09-27T16:14:52.323Z,1.00
2018-09-27T16:17:21.245Z,1.00
2018-09-27T16:19:49.749Z,1.00
2018-09-27T16:22:18.507Z,1.00
2018-09-27T16:24:47.904Z,1.00
2018-09-27T16:27:16.686Z,1.00
2018-09-27T16:29:45.538Z,80.80
2018-09-27T16:32:14.488Z,84.00
2018-09-27T16:34:42.984Z,87.10
2018-09-27T16:37:11.800Z,90.00
2018-09-27T16:39:40.567Z,92.00
2018-09-27T16:42:09.086Z,93.50
2018-09-27T16:44:37.912Z,95.70
2018-09-27T16:47:06.074Z,98.20
2018-09-27T16:49:34.869Z,99.90
2018-09-27T16:52:03.704Z,99.90
2018-09-27T16:54:32.350Z,99.90
2018-09-27T16:57:01.145Z,99.90
2018-09-27T16:59:29.989Z,99.90
2018-09-27T17:01:59.051Z,99.90
2018-09-27T17:04:27.614Z,99.90
2018-09-27T17:06:56.494Z,99.90
2018-09-27T17:09:25.483Z,99.90
2018-09-27T17:11:54.305Z,99.90
2018-09-27T17:14:23.124Z,99.90
2018-09-27T17:16:51.651Z,99.90
2018-09-27T17:19:20.129Z,99.90
2018-09-27T17:21:48.946Z,99.90
2018-09-27T17:24:17.915Z,99.90
2018-09-27T17:26:46.464Z,99.90
2018-09-27T17:29:14.926Z,99.90
2018-09-27T17:31:43.793Z,99.90
2018-09-27T17:34:12.734Z,99.90
2018-09-27T17:36:41.527Z,99.90
2018-09-27T17:39:10.293Z,99.90
2018-09-27T17:41:39.119Z,99.90
2018-09-27T17:44:08.133Z,99.90
2018-09-27T17:46:36.632Z,99.90
2018-09-27T17:49:05.574Z,99.90
2018-09-27T17:51:34.113Z,99.90
2018-09-27T17:54:02.985Z,99.90
2018-09-27T17:56:32.475Z,99.90
2018-09-27T17:59:01.372Z,99.90
2018-09-27T18:01:30.389Z,99.90
2018-09-27T18:03:59.389Z,99.90
2018-09-27T18:06:28.228Z,99.90
2018-09-27T18:08:56.403Z,99.90
2018-09-27T18:11:25.255Z,99.90
2018-09-27T18:13:54.295Z,99.90
2018-09-27T18:16:23.123Z,99.90
2018-09-27T18:18:51.919Z,99.90
2018-09-27T18:21:20.676Z,99.90
2018-09-27T18:23:49.263Z,99.90
2018-09-27T18:26:18.112Z,99.90
2018-09-27T18:28:46.214Z,99.90
2018-09-27T18:31:15.340Z,99.90
2018-09-27T18:33:44.154Z,99.90
2018-09-27T18:36:13.014Z,99.90
2018-09-27T18:38:41.973Z,99.90
2018-09-27T18:41:11.384Z,99.90
2018-09-27T18:43:39.930Z,99.90
2018-09-27T18:46:08.333Z,99.90
2018-09-27T18:48:36.804Z,99.90
2018-09-27T18:51:05.240Z,99.90
2018-09-27T18:53:34.035Z,99.90
2018-09-27T18:56:02.833Z,99.90
2018-09-27T18:58:31.622Z,99.90
2018-09-27T19:01:00.435Z,99.90
2018-09-27T19:03:28.915Z,99.90
2018-09-27T19:05:57.330Z,99.90
2018-09-27T19:08:26.172Z,99.90
2018-09-27T19:10:54.957Z,99.90
2018-09-27T19:13:23.836Z,99.90
2018-09-27T19:15:52.635Z,99.90
2018-09-27T19:18:21.107Z,99.90
2018-09-27T19:20:49.869Z,99.90
2018-09-27T19:23:18.740Z,99.90
2018-09-27T19:25:47.254Z,99.90
2018-09-27T19:28:15.571Z,99.90
2018-09-27T19:30:43.982Z,99.90
2018-09-27T19:33:12.428Z,99.90
2018-09-27T19:35:41.262Z,99.90
2018-09-27T19:38:10.053Z,99.90
2018-09-27T19:40:38.572Z,99.90
2018-09-27T19:43:07.135Z,99.90
2018-09-27T19:45:35.906Z,99.90
2018-09-27T19:48:04.714Z,99.90
2018-09-27T19:50:33.191Z,99.90
2018-09-27T19:53:02.038Z,99.90
2018-09-27T19:55:30.570Z,99.90
2018-09-27T19:57:59.423Z,99.90
2018-09-27T20:00:28.378Z,99.90
2018-09-27T20:02:57.010Z,99.90
2018-09-27T20:05:25.556Z,99.90
2018-09-27T20:07:54.033Z,99.90
2018-09-27T20:10:23.903Z,99.90
2018-09-27T20:12:52.307Z,99.90
2018-09-27T20:15:20.414Z,99.90
2018-09-27T20:17:49.257Z,99.90
2018-09-27T20:20:17.780Z,99.90
2018-09-27T20:22:46.242Z,99.90
2018-09-27T20:25:15.029Z,99.90
2018-09-27T20:27:43.686Z,99.90
2018-09-27T20:30:12.176Z,99.90
2018-09-27T20:32:40.689Z,99.90
2018-09-27T20:35:08.849Z,99.90
2018-09-27T20:37:37.061Z,99.90
2018-09-27T20:40:05.247Z,99.90
2018-09-27T20:42:34.229Z,99.90
2018-09-27T20:45:02.710Z,99.90
2018-09-27T20:47:31.632Z,99.90
2018-09-27T20:50:02.195Z,99.90
2018-09-27T20:52:31.059Z,99.90
2018-09-27T20:55:00.048Z,99.90
2018-09-27T20:57:28.853Z,99.90
2018-09-27T20:59:57.313Z,99.90
2018-09-27T21:02:25.965Z,99.90
2018-09-27T21:04:54.402Z,99.90
2018-09-27T21:07:23.191Z,99.90
2018-09-27T21:09:51.674Z,99.90
2018-09-27T21:12:20.244Z,99.90
2018-09-27T21:14:49.032Z,99.90
2018-09-27T21:17:17.839Z,99.90
2018-09-27T21:19:46.674Z,99.90
2018-09-27T21:22:15.684Z,99.90
2018-09-27T21:24:44.485Z,99.90
2018-09-27T21:27:13.666Z,99.90
2018-09-27T21:29:42.433Z,99.90
2018-09-27T21:32:11.251Z,99.90
2018-09-27T21:34:46.076Z,99.90
2018-09-27T21:37:14.828Z,99.90
2018-09-27T21:39:43.305Z,99.90
2018-09-27T21:42:12.056Z,99.90
2018-09-27T21:44:40.783Z,99.90
2018-09-27T21:47:09.609Z,99.90
2018-09-27T21:49:38.144Z,99.90
2018-09-27T21:52:06.715Z,99.90
2018-09-27T21:54:35.157Z,99.90
2018-09-27T21:57:04.191Z,99.90
2018-09-27T21:59:32.992Z,99.90
2018-09-27T22:02:01.480Z,99.90
2018-09-27T22:04:30.362Z,99.90
2018-09-27T22:06:59.175Z,99.90
2018-09-27T22:09:27.715Z,99.90
2018-09-27T22:11:56.622Z,99.90
2018-09-27T22:14:25.067Z,99.90
2018-09-27T22:16:53.829Z,99.90
2018-09-27T22:19:22.717Z,99.90
2018-09-27T22:21:51.488Z,99.90
2018-09-27T22:24:19.948Z,99.90
2018-09-27T22:26:48.781Z,99.90
2018-09-27T22:29:17.545Z,99.90
2018-09-27T22:31:46.355Z,99.90
2018-09-27T22:34:15.116Z,99.90
2018-09-27T22:36:44.158Z,99.90
2018-09-27T22:39:12.991Z,99.90
2018-09-27T22:41:41.824Z,99.90
2018-09-27T22:44:10.620Z,99.90
2018-09-27T22:46:38.758Z,99.90
2018-09-27T22:49:07.851Z,99.90
2018-09-27T22:51:36.407Z,99.90
2018-09-27T22:54:05.200Z,99.90
2018-09-27T22:56:34.012Z,99.90
2018-09-27T22:59:02.855Z,99.90
2018-09-27T23:01:31.955Z,99.90
2018-09-27T23:04:00.722Z,99.90
2018-09-27T23:06:29.781Z,99.90
2018-09-27T23:08:58.320Z,99.90
2018-09-27T23:11:31.788Z,99.90
2018-09-27T23:14:01.613Z,99.90
2018-09-27T23:16:30.711Z,99.90
2018-09-27T23:19:00.494Z,99.90
2018-09-27T23:21:28.843Z,99.90
2018-09-27T23:23:57.961Z,99.90
2018-09-27T23:26:26.903Z,99.90
2018-09-27T23:28:55.577Z,99.90
2018-09-27T23:31:24.524Z,99.90
2018-09-27T23:33:53.280Z,99.90
2018-09-27T23:36:22.016Z,99.90
2018-09-27T23:38:51.132Z,99.90
2018-09-27T23:41:20.475Z,99.90
2018-09-27T23:43:49.532Z,99.90
2018-09-27T23:46:18.221Z,99.90
2018-09-27T23:48:47.291Z,99.90
2018-09-27T23:51:16.025Z,99.90
2018-09-27T23:53:45.066Z,99.90
2018-09-27T23:56:13.933Z,99.90
2018-09-27T23:58:42.995Z,99.90
